Time;durP1;ratioP1;P1;durP2;ratioP2;P2;SDS_P1;SDS_P2;PMS_P1;PMS_P2;Temp;Humidity;BMP_temperature;BMP_pressure;BME280_temperature;BME280_humidity;BME280_pressure;Samples;Min_cycle;Max_cycle;Signal;HPM_P1;HPM_P2
2021/12/25 00:01:48;;;;;;;15.90;10.30;;;;;;;2.26;77.62;97239.30;1756612;81;21105;-37
2021/12/25 00:04:15;;;;;;;14.58;11.08;;;;;;;2.28;77.58;97229.02;1756280;81;20989;-38
2021/12/25 00:06:42;;;;;;;16.32;10.65;;;;;;;2.33;77.52;97227.94;1756403;81;21526;-37
2021/12/25 00:09:08;;;;;;;14.20;10.50;;;;;;;2.37;77.38;97223.45;1756765;81;20919;-37
2021/12/25 00:11:35;;;;;;;16.05;11.30;;;;;;;2.37;77.38;97224.78;1756567;81;21033;-38
2021/12/25 00:14:09;;;;;;;15.08;11.00;;;;;;;2.37;77.42;97223.45;1756306;80;21094;-37
2021/12/25 00:16:30;;;;;;;15.60;10.82;;;;;;;2.40;77.28;97227.51;1755250;81;20925;-38
2021/12/25 00:18:57;;;;;;;14.80;10.58;;;;;;;2.46;77.19;97230.66;1756697;81;21580;-37
2021/12/25 00:21:24;;;;;;;15.23;10.70;;;;;;;2.45;77.12;97233.12;1756699;81;21013;-37
2021/12/25 00:23:51;;;;;;;15.90;10.72;;;;;;;2.43;77.15;97232.69;1756716;81;21017;-37
2021/12/25 00:26:41;;;;;;;13.20;10.18;;;;;;;2.45;77.11;97219.75;1756609;81;21148;-37
2021/12/25 00:28:54;;;;;;;13.05;9.53;;;;;;;2.50;76.96;97229.59;1751108;81;20882;-38
2021/12/25 00:36:14;;;;;;;14.68;10.40;;;;;;;2.46;77.01;97222.64;1701950;84;20993;-37
2021/12/25 00:38:43;;;;;;;14.87;10.70;;;;;;;2.52;76.88;97218.51;1702204;84;21168;-37
2021/12/25 00:41:14;;;;;;;14.38;10.53;;;;;;;2.54;76.79;97221.05;1701923;84;21056;-37
2021/12/25 00:43:41;;;;;;;13.93;10.47;;;;;;;2.53;76.79;97228.08;1702460;84;20997;-38
2021/12/25 00:46:07;;;;;;;13.80;9.40;;;;;;;2.57;76.71;97219.55;1701950;84;21600;-38
2021/12/25 00:48:35;;;;;;;14.33;10.48;;;;;;;2.64;76.46;97231.70;1701992;84;21041;-38
2021/12/25 00:51:03;;;;;;;14.95;10.85;;;;;;;2.70;76.31;97228.94;1702079;84;21116;-37
2021/12/25 00:53:30;;;;;;;14.47;11.08;;;;;;;2.69;76.21;97223.38;1702259;84;21544;-37
2021/12/25 00:55:56;;;;;;;13.00;10.05;;;;;;;2.68;76.17;97225.84;1702186;84;21501;-38
2021/12/25 00:58:23;;;;;;;13.00;9.58;;;;;;;2.66;76.09;97230.80;1702202;84;21019;-38
2021/12/25 01:00:51;;;;;;;13.03;9.20;;;;;;;2.72;76.00;97223.20;1677694;84;21049;-37
2021/12/25 01:03:18;;;;;;;12.88;9.13;;;;;;;2.74;76.09;97221.73;1701985;84;21847;-38
2021/12/25 01:05:44;;;;;;;14.58;9.45;;;;;;;2.76;76.13;97234.76;1701916;84;21045;-37
2021/12/25 01:08:11;;;;;;;13.50;9.28;;;;;;;2.75;76.15;97229.97;1702117;84;20999;-37
2021/12/25 01:10:38;;;;;;;13.68;8.63;;;;;;;2.77;76.13;97224.24;1702105;84;21073;-38
2021/12/25 01:13:10;;;;;;;11.20;8.53;;;;;;;2.84;75.86;97222.45;1702267;84;21070;-38
2021/12/25 01:15:50;;;;;;;11.80;8.70;;;;;;;2.92;75.57;97216.63;1701748;84;21018;-38
2021/12/25 01:18:40;;;;;;;10.93;8.63;;;;;;;2.92;75.40;97208.60;1700666;84;21693;-38
2021/12/25 01:26:29;;;;;;;11.53;8.38;;;;;;;2.96;75.16;97226.25;1694248;84;21058;-39
2021/12/25 01:36:54;;;;;;;10.10;7.65;;;;;;;3.02;75.07;97236.86;1710469;83;20946;-39
2021/12/25 01:39:47;;;;;;;12.82;7.95;;;;;;;3.01;75.03;97228.62;1710553;83;21421;-39
2021/12/25 01:47:45;;;;;;;11.90;7.72;;;;;;;2.99;75.13;97230.91;1694271;83;21146;-39
2021/12/25 01:47:47;;;;;;;9.88;7.53;;;;;;;3.05;75.00;97222.74;1710326;83;21527;-39
2021/12/25 01:50:11;;;;;;;11.28;7.33;;;;;;;3.06;74.87;97243.03;1710629;83;21515;-39
2021/12/25 01:52:38;;;;;;;12.90;7.12;;;;;;;3.05;74.92;97244.16;1710663;83;21045;-40
2021/12/25 01:55:09;;;;;;;9.30;6.78;;;;;;;3.06;75.08;97249.72;1710929;83;21154;-39
2021/12/25 01:57:36;;;;;;;9.58;7.08;;;;;;;3.13;75.12;97264.34;1710578;83;21489;-39
2021/12/25 02:00:19;;;;;;;9.35;7.10;;;;;;;3.22;74.90;97258.16;1710454;83;21033;-39
2021/12/25 02:02:45;;;;;;;;;;;;;;;3.21;74.83;97261.40;1705263;83;20950;-39
2021/12/25 02:05:13;;;;;;;10.00;7.33;;;;;;;3.25;74.82;97261.44;1710558;83;20216;-40
2021/12/25 02:07:41;;;;;;;8.80;6.42;;;;;;;3.25;74.88;97267.58;1710561;83;20930;-39
2021/12/25 02:10:10;;;;;;;9.25;6.65;;;;;;;3.33;74.70;97252.39;1710506;83;21040;-40
2021/12/25 02:12:38;;;;;;;9.78;7.03;;;;;;;3.34;74.55;97252.59;1710517;83;20954;-39
2021/12/25 02:15:12;;;;;;;13.03;6.62;;;;;;;3.35;74.52;97258.13;1710597;83;21053;-39
2021/12/25 02:20:35;;;;;;;9.30;6.30;;;;;;;3.39;74.38;97260.29;1707610;83;21130;-39
2021/12/25 02:23:03;;;;;;;8.58;6.20;;;;;;;3.35;74.46;97278.22;1694309;83;21105;-39
2021/12/25 02:25:32;;;;;;;8.80;6.60;;;;;;;3.34;74.60;97296.78;1694231;83;20926;-39
2021/12/25 02:27:58;;;;;;;8.38;6.47;;;;;;;3.37;74.43;97302.75;1672155;84;21049;-40
2021/12/25 02:30:26;;;;;;;9.83;6.80;;;;;;;3.38;74.40;97296.27;1706691;84;21053;-39
2021/12/25 02:32:53;;;;;;;9.95;6.75;;;;;;;3.36;74.38;97304.66;1678663;84;21856;-40
2021/12/25 02:35:20;;;;;;;10.18;6.20;;;;;;;3.31;74.39;97300.17;1706717;84;20982;-39
2021/12/25 02:37:47;;;;;;;9.13;5.92;;;;;;;3.36;74.36;97323.40;1706916;83;21037;-39
2021/12/25 02:40:14;;;;;;;9.18;6.62;;;;;;;3.40;74.31;97330.14;1706577;84;21085;-39
2021/12/25 02:42:41;;;;;;;8.28;6.30;;;;;;;3.40;74.35;97328.23;1706893;84;21015;-39
2021/12/25 02:45:16;;;;;;;8.00;6.20;;;;;;;3.37;74.37;97330.88;1706607;84;21857;-39
2021/12/25 02:47:42;;;;;;;9.93;6.45;;;;;;;3.35;74.33;97327.20;1705274;84;21085;-39
2021/12/25 02:50:07;;;;;;;8.35;6.25;;;;;;;3.35;74.43;97313.81;1706454;84;20985;-39
2021/12/25 02:52:35;;;;;;;10.23;6.80;;;;;;;3.38;74.39;97306.98;1707231;83;21552;-39
2021/12/25 02:55:02;;;;;;;9.23;6.37;;;;;;;3.35;74.42;97309.02;1706674;84;21086;-39
2021/12/25 02:57:31;;;;;;;8.10;6.72;;;;;;;3.32;74.62;97321.24;1706645;84;21134;-40
2021/12/25 02:59:58;;;;;;;8.78;6.50;;;;;;;3.33;74.64;97322.80;1706804;83;21575;-39
2021/12/25 03:02:25;;;;;;;9.53;6.72;;;;;;;3.32;74.65;97331.18;1706702;84;21049;-39
2021/12/25 03:04:53;;;;;;;10.93;7.05;;;;;;;3.28;74.79;97342.41;1706697;83;20990;-39
2021/12/25 03:07:20;;;;;;;8.28;6.58;;;;;;;3.24;74.79;97343.70;1706734;84;21041;-39
2021/12/25 03:09:49;;;;;;;9.08;6.53;;;;;;;3.24;74.87;97354.98;1706565;83;22377;-39
2021/12/25 03:12:25;;;;;;;8.95;6.53;;;;;;;3.25;74.79;97355.16;1706481;84;20989;-39
2021/12/25 03:15:27;;;;;;;9.23;6.70;;;;;;;3.25;74.72;97350.58;1705636;84;20990;-39
2021/12/25 03:17:19;;;;;;;10.23;7.33;;;;;;;3.22;74.78;97361.24;1694082;84;21018;-39
2021/12/25 03:19:46;;;;;;;7.55;6.30;;;;;;;3.20;74.84;97367.52;1708837;83;21041;-39
2021/12/25 03:22:12;;;;;;;8.08;6.08;;;;;;;3.21;74.91;97373.08;1712176;83;21563;-39
2021/12/25 03:24:39;;;;;;;8.43;6.05;;;;;;;3.20;75.17;97383.02;1663024;83;20977;-39
2021/12/25 03:27:06;;;;;;;9.35;6.62;;;;;;;3.22;75.16;97388.80;1712381;83;21033;-39
2021/12/25 03:29:35;;;;;;;8.40;5.75;;;;;;;3.23;75.28;97400.28;1712245;83;21535;-39
2021/12/25 03:32:01;;;;;;;8.80;5.90;;;;;;;3.24;75.66;97420.58;1712287;83;21508;-39
2021/12/25 03:34:29;;;;;;;8.03;5.90;;;;;;;3.27;75.88;97423.88;1712073;83;21131;-39
2021/12/25 03:36:56;;;;;;;7.08;5.33;;;;;;;3.28;76.20;97442.83;1712188;83;21646;-39
2021/12/25 03:39:22;;;;;;;6.78;4.97;;;;;;;3.22;76.25;97442.91;1712211;83;21049;-39
2021/12/25 03:41:51;;;;;;;7.87;5.40;;;;;;;3.15;76.29;97452.18;1712488;83;21003;-39
2021/12/25 03:44:20;;;;;;;6.97;4.95;;;;;;;3.13;76.40;97454.42;1686061;83;21571;-39
2021/12/25 03:46:47;;;;;;;6.47;4.85;;;;;;;3.11;76.06;97458.02;1712331;83;21148;-39
2021/12/25 03:49:26;;;;;;;6.80;4.97;;;;;;;3.05;75.94;97460.98;1712181;83;21028;-39
2021/12/25 04:00:03;;;;;;;7.78;4.20;;;;;;;2.90;76.15;97494.00;1712352;83;21146;-39
2021/12/25 04:02:34;;;;;;;7.25;4.30;;;;;;;2.86;76.24;97501.73;1711977;83;21028;-39
2021/12/25 04:04:59;;;;;;;5.58;4.08;;;;;;;2.87;76.27;97505.39;1711539;83;21033;-39
2021/12/25 04:08:13;;;;;;;5.65;4.15;;;;;;;2.91;76.05;97517.50;1712205;83;21026;-39
2021/12/25 04:09:59;;;;;;;6.28;4.47;;;;;;;2.85;76.10;97512.24;1694685;83;21701;-40
2021/12/25 04:12:22;;;;;;;6.15;3.98;;;;;;;2.81;76.26;97533.56;1711802;83;21202;-39
2021/12/25 04:14:50;;;;;;;7.10;4.47;;;;;;;2.82;76.30;97548.50;1712155;83;20942;-39
2021/12/25 04:17:18;;;;;;;5.10;4.20;;;;;;;2.86;76.25;97569.41;1712292;83;21037;-40
2021/12/25 04:19:45;;;;;;;6.75;3.87;;;;;;;2.88;76.19;97569.84;1712352;83;21089;-39
2021/12/25 04:22:18;;;;;;;6.72;3.70;;;;;;;2.88;76.14;97553.01;1712384;83;21052;-39
2021/12/25 04:24:43;;;;;;;4.67;3.58;;;;;;;2.85;76.08;97564.42;1711817;83;21152;-39
2021/12/25 04:27:13;;;;;;;6.95;3.92;;;;;;;2.83;75.98;97570.69;1712410;83;21257;-39
2021/12/25 04:29:47;;;;;;;7.87;3.90;;;;;;;2.87;75.95;97576.87;1712083;83;20985;-39
2021/12/25 05:05:01;;;;;;;3.33;2.55;;;;;;;2.10;74.49;97660.94;1712226;83;21133;-39
2021/12/25 05:07:34;;;;;;;4.75;2.47;;;;;;;2.07;74.62;97676.34;1698533;83;21535;-39
2021/12/25 05:10:01;;;;;;;3.62;2.60;;;;;;;1.96;74.89;97685.98;1712289;83;20930;-39
2021/12/25 05:12:27;;;;;;;2.90;2.35;;;;;;;1.89;75.14;97685.23;1712149;83;21097;-39
2021/12/25 05:14:54;;;;;;;3.35;2.60;;;;;;;1.85;75.09;97692.37;1712381;83;21049;-39
2021/12/25 05:17:21;;;;;;;4.30;2.80;;;;;;;1.83;75.02;97690.63;1712370;83;21918;-40
2021/12/25 05:19:48;;;;;;;3.10;2.60;;;;;;;1.75;75.01;97713.69;1712175;83;21021;-39
2021/12/25 05:22:17;;;;;;;3.42;2.52;;;;;;;1.69;75.08;97703.61;1712272;83;20977;-39
2021/12/25 05:24:45;;;;;;;3.55;2.42;;;;;;;1.66;75.02;97706.95;1712566;83;21531;-39
2021/12/25 05:27:14;;;;;;;3.98;3.08;;;;;;;1.67;74.87;97709.84;1712301;83;21108;-39
2021/12/25 05:29:45;;;;;;;4.65;3.67;;;;;;;1.66;74.74;97711.73;1712377;83;21147;-39
2021/12/25 05:32:11;;;;;;;4.93;3.70;;;;;;;1.63;74.48;97710.31;1712289;83;21025;-39
2021/12/25 05:34:40;;;;;;;5.60;3.87;;;;;;;1.62;74.24;97727.45;1711242;83;21236;-39
2021/12/25 05:37:08;;;;;;;6.75;4.47;;;;;;;1.63;73.77;97742.36;1709561;83;21049;-39
2021/12/25 05:39:50;;;;;;;6.15;4.03;;;;;;;1.65;72.90;97752.13;1652402;86;21634;-39
2021/12/25 05:42:14;;;;;;;5.53;4.22;;;;;;;1.63;72.89;97754.38;1711885;83;21551;-39
2021/12/25 05:44:43;;;;;;;7.42;4.75;;;;;;;1.55;72.21;97753.97;1712190;83;20962;-39
2021/12/25 05:47:11;;;;;;;5.83;4.33;;;;;;;1.53;72.13;97769.55;1708898;83;21049;-39
2021/12/25 05:49:40;;;;;;;7.42;5.45;;;;;;;1.52;71.61;97768.77;1711589;83;21014;-39
2021/12/25 05:52:11;;;;;;;8.03;5.00;;;;;;;1.54;71.75;97773.78;1711157;83;21101;-39
2021/12/25 05:54:42;;;;;;;6.22;4.92;;;;;;;1.49;71.08;97798.83;1676960;83;21147;-39
2021/12/25 05:57:28;;;;;;;7.58;5.37;;;;;;;1.47;71.24;97804.27;1712398;83;21669;-39
2021/12/25 05:59:59;;;;;;;8.50;5.62;;;;;;;1.43;70.87;97798.05;1709852;83;21369;-39
2021/12/25 06:02:28;;;;;;;7.70;5.20;;;;;;;1.39;71.01;97809.97;1699343;83;21043;-39
2021/12/25 06:04:55;;;;;;;7.55;5.00;;;;;;;1.33;70.80;97802.52;1712585;83;21061;-39
2021/12/25 06:07:21;;;;;;;7.25;5.20;;;;;;;1.29;70.80;97821.11;1712645;83;21140;-39
2021/12/25 06:09:48;;;;;;;7.72;5.28;;;;;;;1.24;70.88;97839.47;1712303;83;21543;-39
2021/12/25 06:12:16;;;;;;;8.20;5.55;;;;;;;1.24;71.09;97843.47;1712351;83;21032;-39
2021/12/25 06:14:44;;;;;;;8.70;5.62;;;;;;;1.23;71.22;97857.14;1712351;83;21105;-39
2021/12/25 06:17:13;;;;;;;7.80;5.05;;;;;;;1.22;71.29;97848.91;1712204;83;21062;-39
2021/12/25 06:19:41;;;;;;;7.22;4.87;;;;;;;1.25;71.31;97863.72;1710776;83;21147;-39
2021/12/25 06:22:10;;;;;;;7.20;5.00;;;;;;;1.27;71.44;97860.70;1698173;84;21070;-39
2021/12/25 06:24:55;;;;;;;8.33;5.22;;;;;;;1.31;71.00;97880.27;1707194;83;21032;-39
2021/12/25 06:27:41;;;;;;;8.18;5.28;;;;;;;1.32;70.53;97880.49;1716454;82;21539;-39
2021/12/25 06:30:13;;;;;;;6.78;5.15;;;;;;;1.28;70.65;97887.62;1719118;83;21787;-39
2021/12/25 06:32:44;;;;;;;7.47;5.42;;;;;;;1.25;70.44;97889.08;1719213;83;21495;-39
2021/12/25 06:35:23;;;;;;;8.15;5.05;;;;;;;1.25;70.38;97892.30;1720913;83;20969;-39
2021/12/25 06:38:08;;;;;;;7.17;5.15;;;;;;;1.23;70.52;97906.52;1721000;82;21532;-39
2021/12/25 06:40:42;;;;;;;8.48;5.75;;;;;;;1.22;70.22;97909.75;1720144;83;20969;-39
2021/12/25 06:43:09;;;;;;;8.75;5.40;;;;;;;1.21;70.23;97917.53;1702177;83;21033;-39
2021/12/25 06:45:35;;;;;;;9.03;5.97;;;;;;;1.20;69.85;97928.56;1720870;83;21761;-39
2021/12/25 06:48:04;;;;;;;8.08;4.97;;;;;;;1.19;70.04;97937.67;1720773;83;20973;-39
2021/12/25 06:50:48;;;;;;;6.67;4.97;;;;;;;1.17;70.06;97921.98;1720825;83;22179;-39
2021/12/25 06:53:17;;;;;;;7.95;5.62;;;;;;;1.12;69.94;97932.87;1708247;83;21494;-39
2021/12/25 06:55:48;;;;;;;7.70;5.83;;;;;;;1.11;69.91;97939.89;1696141;83;21076;-39
2021/12/25 06:58:22;;;;;;;8.98;5.50;;;;;;;1.11;69.54;97946.02;1720715;83;21161;-39
2021/12/25 07:00:49;;;;;;;8.03;5.28;;;;;;;1.15;69.57;97966.14;1720768;83;21638;-39
2021/12/25 07:03:16;;;;;;;8.03;5.83;;;;;;;1.18;69.26;97971.59;1720839;83;21566;-39
2021/12/25 07:06:02;;;;;;;8.60;5.85;;;;;;;1.20;69.52;97964.04;1720788;83;21096;-39
2021/12/25 07:08:39;;;;;;;9.05;6.08;;;;;;;1.26;69.22;97970.70;1719410;83;22108;-39
2021/12/25 07:11:14;;;;;;;10.78;6.30;;;;;;;1.30;68.98;97978.30;1718761;83;21142;-39
2021/12/25 07:13:56;;;;;;;7.67;5.67;;;;;;;1.35;68.55;97979.19;1719874;83;20981;-39
2021/12/25 07:16:41;;;;;;;9.58;6.60;;;;;;;1.34;68.30;97986.97;1668803;85;21649;-39
2021/12/25 07:19:26;;;;;;;8.38;5.95;;;;;;;1.36;68.00;97996.19;1710484;83;21874;-40
2021/12/25 07:22:06;;;;;;;9.40;6.03;;;;;;;1.39;67.99;97991.53;1713481;83;21692;-39
2021/12/25 07:24:41;;;;;;;8.98;6.60;;;;;;;1.42;67.64;98000.20;1711999;82;21142;-39
2021/12/25 07:27:15;;;;;;;10.30;6.40;;;;;;;1.47;67.38;98010.67;1663781;82;21102;-39
2021/12/25 07:29:44;;;;;;;13.43;6.53;;;;;;;1.50;67.64;98015.92;1712398;82;21011;-39
2021/12/25 07:32:10;;;;;;;11.03;6.47;;;;;;;1.53;67.61;98015.25;1712922;83;21093;-39
2021/12/25 07:34:37;;;;;;;9.18;7.03;;;;;;;1.56;67.60;98030.59;1713115;83;21061;-39
2021/12/25 07:37:04;;;;;;;8.83;6.90;;;;;;;1.60;67.46;98035.48;1713115;82;21093;-39
2021/12/25 07:39:30;;;;;;;9.35;6.53;;;;;;;1.60;67.03;98040.83;1712937;83;21072;-39
2021/12/25 07:41:57;;;;;;;10.08;6.95;;;;;;;1.63;67.10;98046.87;1713326;82;21036;-39
2021/12/25 07:44:26;;;;;;;10.03;6.75;;;;;;;1.63;66.94;98050.31;1712872;82;21590;-39
2021/12/25 07:46:54;;;;;;;10.00;7.35;;;;;;;1.66;66.95;98060.88;1713178;83;21014;-39
2021/12/25 07:49:21;;;;;;;9.65;7.03;;;;;;;1.67;66.83;98058.44;1713149;83;21093;-39
2021/12/25 07:51:48;;;;;;;9.65;6.00;;;;;;;1.68;66.36;98062.68;1713136;83;21065;-39
2021/12/25 07:54:15;;;;;;;10.20;6.90;;;;;;;1.63;65.54;98062.34;1713180;83;20973;-39
2021/12/25 07:56:41;;;;;;;9.08;6.65;;;;;;;1.62;65.00;98084.03;1713199;83;21480;-39
2021/12/25 07:59:09;;;;;;;9.10;7.05;;;;;;;1.61;65.52;98082.47;1713218;83;21042;-39
2021/12/25 08:01:37;;;;;;;10.30;7.28;;;;;;;1.59;65.75;98086.05;1713203;82;21875;-39
2021/12/25 08:04:04;;;;;;;11.08;6.92;;;;;;;1.55;65.35;98087.23;1713087;83;20922;-39
2021/12/25 08:06:33;;;;;;;11.15;7.50;;;;;;;1.55;65.36;98085.14;1713303;82;21091;-39
2021/12/25 08:09:01;;;;;;;9.33;7.00;;;;;;;1.57;65.60;98089.59;1713193;83;21049;-39
2021/12/25 08:11:30;;;;;;;;;;;;;;;1.56;65.50;98096.03;1715739;82;20977;-39
2021/12/25 08:13:57;;;;;;;12.53;7.40;;;;;;;1.55;65.42;98101.17;1713294;83;22315;-40
2021/12/25 08:16:24;;;;;;;12.00;7.83;;;;;;;1.45;65.19;98101.03;1713026;83;20981;-39
2021/12/25 08:18:51;;;;;;;11.78;8.08;;;;;;;1.47;64.84;98112.70;1713366;82;20970;-39
2021/12/25 08:21:36;;;;;;;10.78;8.48;;;;;;;1.47;64.47;98111.37;1713161;83;21038;-39
2021/12/25 08:24:21;;;;;;;13.32;7.97;;;;;;;1.47;64.61;98119.37;1713312;83;21330;-39
2021/12/25 08:27:07;;;;;;;11.25;7.95;;;;;;;1.46;64.32;98116.48;1713348;82;21862;-39
2021/12/25 08:29:52;;;;;;;11.35;7.62;;;;;;;1.43;64.20;98126.50;1726686;81;20997;-39
2021/12/25 08:32:33;;;;;;;11.57;7.70;;;;;;;1.41;64.10;98131.37;1702981;84;21041;-39
2021/12/25 08:35:19;;;;;;;12.05;7.85;;;;;;;1.41;63.55;98129.48;1706991;84;21783;-39
2021/12/25 08:37:47;;;;;;;10.00;7.12;;;;;;;1.45;63.77;98131.75;1742749;81;20946;-38
2021/12/25 08:40:14;;;;;;;10.60;7.60;;;;;;;1.51;63.66;98141.64;1742587;82;21839;-39
2021/12/25 08:42:47;;;;;;;13.48;7.80;;;;;;;1.53;63.38;98140.22;1706991;84;20930;-39
2021/12/25 08:45:30;;;;;;;8.90;6.12;;;;;;;1.57;62.82;98135.77;1742234;80;20946;-38
2021/12/25 08:47:40;;;;;;;9.53;7.40;;;;;;;1.60;63.18;98139.11;1704130;84;21558;-39
2021/12/25 08:50:11;;;;;;;10.30;6.90;;;;;;;1.33;62.91;98096.20;1742784;82;21066;-39
2021/12/25 08:52:38;;;;;;;11.08;7.70;;;;;;;1.68;63.08;98148.16;1707295;83;21094;-39
2021/12/25 08:55:07;;;;;;;11.57;7.47;;;;;;;1.73;63.02;98135.38;1742736;81;21009;-39
2021/12/25 08:57:33;;;;;;;10.55;7.25;;;;;;;1.75;62.62;98143.83;1743103;82;21076;-39
2021/12/25 09:00:01;;;;;;;10.18;7.40;;;;;;;1.79;62.00;98150.65;1707066;83;22037;-38
2021/12/25 09:02:28;;;;;;;12.13;7.58;;;;;;;1.79;61.62;98148.53;1706953;84;21029;-38
2021/12/25 09:04:55;;;;;;;11.73;8.03;;;;;;;1.84;62.30;98147.73;1742744;82;21173;-39
2021/12/25 09:07:22;;;;;;;12.93;7.95;;;;;;;1.89;62.01;98138.75;1742516;81;21085;-39
2021/12/25 09:09:48;;;;;;;12.55;8.53;;;;;;;1.96;62.28;98149.11;1707091;83;21072;-39
2021/12/25 09:12:19;;;;;;;9.88;7.12;;;;;;;2.05;62.90;98161.81;1706911;84;21559;-39
2021/12/25 09:14:46;;;;;;;6.97;4.87;;;;;;;2.15;62.15;98168.06;1743138;82;21041;-39
2021/12/25 09:17:13;;;;;;;8.43;5.80;;;;;;;2.27;61.79;98190.03;1706893;84;21140;-39
2021/12/25 09:19:41;;;;;;;8.90;5.58;;;;;;;2.31;60.37;98184.23;1707027;84;21033;-39
2021/12/25 09:22:09;;;;;;;8.05;5.22;;;;;;;2.30;59.48;98194.70;1706840;83;20957;-39
2021/12/25 09:24:37;;;;;;;9.00;5.35;;;;;;;2.24;59.13;98206.73;1742643;82;21057;-39
2021/12/25 09:27:05;;;;;;;6.20;4.85;;;;;;;2.18;58.35;98208.83;1742915;82;21005;-39
2021/12/25 09:29:33;;;;;;;7.25;5.22;;;;;;;2.10;59.09;98208.94;1707070;84;21619;-39
2021/12/25 09:31:59;;;;;;;6.85;4.60;;;;;;;2.03;59.00;98214.81;1743010;82;21042;-39
2021/12/25 09:34:26;;;;;;;5.90;4.80;;;;;;;1.94;57.91;98206.11;1706897;84;21522;-39
2021/12/25 09:36:53;;;;;;;5.55;4.10;;;;;;;1.84;58.64;98209.20;1743173;82;21077;-39
2021/12/25 09:39:21;;;;;;;8.80;4.50;;;;;;;1.83;57.99;98210.87;1707032;83;20986;-39
2021/12/25 09:41:48;;;;;;;6.55;4.42;;;;;;;1.74;57.79;98200.28;1742742;81;21127;-39
2021/12/25 09:44:14;;;;;;;7.03;4.70;;;;;;;1.67;58.25;98212.05;1706920;83;21009;-39
2021/12/25 09:46:41;;;;;;;6.50;4.22;;;;;;;1.60;58.34;98213.12;1737359;82;21030;-39
2021/12/25 09:49:08;;;;;;;8.25;4.42;;;;;;;1.59;56.77;98210.25;1728011;81;21099;-38
2021/12/25 09:51:34;;;;;;;6.47;4.28;;;;;;;1.56;57.29;98221.56;1697911;83;21580;-38
2021/12/25 09:54:06;;;;;;;5.83;4.08;;;;;;;1.56;56.73;98230.36;1682774;83;21526;-38
2021/12/25 09:56:37;;;;;;;5.83;4.45;;;;;;;1.54;57.33;98227.81;1680263;84;21541;-38
2021/12/25 09:59:05;;;;;;;6.30;4.30;;;;;;;1.55;56.93;98234.72;1703408;84;20914;-38
2021/12/25 10:01:40;;;;;;;6.05;4.47;;;;;;;1.54;56.50;98232.59;1678914;84;21064;-38
2021/12/25 10:04:09;;;;;;;8.30;4.70;;;;;;;1.53;56.63;98236.38;1682943;84;21012;-38
2021/12/25 10:06:45;;;;;;;9.20;5.45;;;;;;;1.55;56.30;98234.14;1739228;82;21533;-39
2021/12/25 10:09:19;;;;;;;8.35;5.37;;;;;;;1.56;57.03;98237.05;1713888;82;21013;-39
2021/12/25 10:12:08;;;;;;;10.20;5.87;;;;;;;1.59;57.03;98240.41;1730926;82;21025;-40
2021/12/25 10:14:39;;;;;;;9.88;5.50;;;;;;;1.62;57.44;98246.98;1706818;82;21032;-39
2021/12/25 10:17:22;;;;;;;7.60;4.72;;;;;;;1.65;57.24;98238.30;1699335;82;21539;-39
2021/12/25 10:20:15;;;;;;;7.90;5.37;;;;;;;1.67;57.17;98240.09;1676649;84;21187;-39
2021/12/25 10:23:14;;;;;;;8.48;5.10;;;;;;;1.70;57.19;98243.44;1677182;84;22143;-40
2021/12/25 10:25:49;;;;;;;6.92;4.58;;;;;;;1.79;57.34;98248.73;1686106;84;21048;-39
2021/12/25 10:28:21;;;;;;;6.65;4.45;;;;;;;1.83;56.21;98258.43;1676266;84;21026;-39
2021/12/25 10:31:00;;;;;;;6.87;5.00;;;;;;;1.87;56.22;98263.34;1685336;84;21565;-39
2021/12/25 10:33:38;;;;;;;7.03;4.70;;;;;;;1.88;56.55;98262.23;1682902;84;21986;-39
2021/12/25 10:36:12;;;;;;;8.60;4.83;;;;;;;1.89;56.53;98274.46;1684518;84;21034;-39
2021/12/25 10:38:40;;;;;;;7.08;4.67;;;;;;;1.98;55.81;98269.06;1688054;83;21013;-39
2021/12/25 10:41:20;;;;;;;6.72;4.72;;;;;;;2.03;55.61;98267.52;1698409;84;21007;-39
2021/12/25 10:43:52;;;;;;;6.10;4.30;;;;;;;2.06;54.02;98272.98;1710714;82;20998;-39
2021/12/25 10:46:19;;;;;;;7.20;4.75;;;;;;;2.08;53.19;98272.66;1747162;80;21133;-39
2021/12/25 10:48:46;;;;;;;6.35;4.20;;;;;;;2.07;52.39;98267.87;1749757;82;21472;-39
2021/12/25 10:51:25;;;;;;;5.17;4.08;;;;;;;2.05;51.39;98271.41;1749553;82;21042;-39
2021/12/25 10:53:53;;;;;;;6.92;3.67;;;;;;;1.98;51.21;98283.21;1738535;82;21045;-39
2021/12/25 10:56:21;;;;;;;3.72;2.42;;;;;;;1.94;51.07;98280.94;1733761;82;21018;-39
2021/12/25 10:58:48;;;;;;;5.65;3.22;;;;;;;1.91;50.61;98282.95;1733033;82;21143;-39
2021/12/25 11:01:16;;;;;;;5.53;3.45;;;;;;;1.88;49.95;98296.98;1714386;83;20941;-39
2021/12/25 11:03:45;;;;;;;4.95;3.55;;;;;;;1.85;50.50;98286.92;1714628;83;21037;-39
2021/12/25 11:06:19;;;;;;;4.00;3.20;;;;;;;1.90;50.49;98297.41;1707749;82;21625;-39
2021/12/25 11:08:47;;;;;;;5.70;3.22;;;;;;;1.56;49.92;98253.06;1702886;83;21537;-39
2021/12/25 11:11:17;;;;;;;5.12;3.62;;;;;;;1.85;49.79;98306.97;1697100;84;21137;-39
2021/12/25 11:13:49;;;;;;;5.40;2.92;;;;;;;1.80;48.18;98308.50;1748449;81;21578;-39
2021/12/25 11:16:27;;;;;;;4.12;2.80;;;;;;;1.62;48.11;98319.10;1720784;83;21459;-39
2021/12/25 11:19:09;;;;;;;3.98;2.60;;;;;;;1.52;48.04;98310.14;1694686;83;21080;-40
2021/12/25 11:21:49;;;;;;;4.50;2.77;;;;;;;1.47;47.55;98329.02;1750759;82;21555;-39
2021/12/25 11:24:25;;;;;;;5.40;2.85;;;;;;;1.43;47.26;98328.11;1750074;81;21158;-39
2021/12/25 11:27:00;;;;;;;3.60;2.40;;;;;;;1.44;47.78;98337.70;1749133;81;20930;-39
2021/12/25 11:29:29;;;;;;;4.55;2.72;;;;;;;1.49;48.75;98340.17;1750648;82;21540;-39
2021/12/25 11:31:56;;;;;;;3.98;2.62;;;;;;;1.65;48.47;98329.91;1730348;82;20980;-39
2021/12/25 11:34:25;;;;;;;4.17;3.00;;;;;;;1.78;47.93;98332.11;1733256;82;21558;-39
2021/12/25 11:37:52;;;;;;;7.28;3.08;;;;;;;1.97;47.66;98326.30;1846628;76;22612;-38
2021/12/25 11:40:19;;;;;;;4.90;3.20;;;;;;;2.02;47.43;98340.80;1821130;78;21218;-38
2021/12/25 11:42:53;;;;;;;6.78;3.10;;;;;;;2.07;45.37;98348.06;1805375;78;21944;-38
2021/12/25 11:45:28;;;;;;;5.97;3.17;;;;;;;2.04;45.23;98339.34;1811324;78;21538;-38
2021/12/25 11:47:58;;;;;;;4.30;2.83;;;;;;;2.06;44.37;98347.05;1793222;80;20955;-38
2021/12/25 11:50:41;;;;;;;5.15;3.33;;;;;;;2.11;43.38;98354.86;1817423;78;20909;-38
2021/12/25 11:53:31;;;;;;;4.00;2.72;;;;;;;2.05;43.34;98377.00;1806508;78;20956;-38
2021/12/25 11:58:54;;;;;;;6.03;3.27;;;;;;;1.84;43.14;98366.86;1757668;81;21310;-38
2021/12/25 12:01:34;;;;;;;4.65;2.92;;;;;;;1.76;43.41;98391.77;1774569;79;21002;-38
2021/12/25 12:04:16;;;;;;;4.42;3.00;;;;;;;1.60;43.88;98393.42;1739640;82;21075;-38
2021/12/25 12:07:04;;;;;;;4.83;3.33;;;;;;;1.52;43.87;98403.06;1758354;81;20967;-38
2021/12/25 12:09:53;;;;;;;7.30;3.15;;;;;;;1.46;44.83;98378.20;1770003;80;21143;-38
2021/12/25 12:12:40;;;;;;;4.85;3.35;;;;;;;1.44;45.33;98376.42;1683550;84;21646;-38
2021/12/25 12:15:14;;;;;;;5.67;3.42;;;;;;;1.43;45.50;98382.86;1695893;84;21014;-38
2021/12/25 12:17:54;;;;;;;4.72;3.47;;;;;;;1.41;45.85;98385.05;1606451;87;21098;-37
2021/12/25 12:20:40;;;;;;;4.25;3.00;;;;;;;1.40;45.90;98390.98;1816478;79;21008;-38
2021/12/25 12:23:56;;;;;;;3.90;2.62;;;;;;;1.39;45.78;98404.64;1798649;78;21819;-38
2021/12/25 12:26:48;;;;;;;4.47;2.67;;;;;;;1.34;45.40;98401.60;1795780;78;21553;-38
2021/12/25 12:29:42;;;;;;;4.65;3.17;;;;;;;1.22;45.74;98407.61;1794097;78;20989;-38
2021/12/25 12:32:26;;;;;;;5.92;3.75;;;;;;;1.18;46.28;98402.69;1765065;80;20995;-38
2021/12/25 12:34:53;;;;;;;8.25;5.17;;;;;;;1.12;46.24;98399.95;1757785;81;21015;-38
2021/12/25 12:37:25;;;;;;;9.03;5.60;;;;;;;1.06;46.50;98414.61;1764157;78;21846;-38
2021/12/25 12:40:05;;;;;;;15.32;8.95;;;;;;;1.01;46.61;98422.78;1776442;79;21552;-38
2021/12/25 12:42:49;;;;;;;9.63;5.67;;;;;;;0.97;47.02;98419.16;1758555;80;20971;-38
2021/12/25 12:45:30;;;;;;;7.78;4.47;;;;;;;0.93;47.05;98436.92;1773060;79;21875;-38
2021/12/25 12:48:16;;;;;;;5.70;3.75;;;;;;;0.85;47.04;98445.19;1749590;81;21015;-38
2021/12/25 12:50:55;;;;;;;5.35;3.55;;;;;;;0.75;47.24;98445.52;1757681;81;21533;-38
2021/12/25 12:53:24;;;;;;;6.37;3.50;;;;;;;0.68;47.39;98443.88;1750491;80;21024;-38
2021/12/25 12:55:53;;;;;;;5.67;3.62;;;;;;;0.65;47.46;98438.39;1753745;79;21613;-38
2021/12/25 12:58:26;;;;;;;5.55;3.25;;;;;;;0.59;46.94;98444.98;1746929;81;21524;-38
2021/12/25 13:01:10;;;;;;;5.80;3.70;;;;;;;0.50;46.06;98460.22;1750533;80;20993;-38
2021/12/25 13:03:38;;;;;;;6.53;3.90;;;;;;;0.40;46.17;98465.32;1768489;79;21143;-38
2021/12/25 13:06:11;;;;;;;5.78;3.65;;;;;;;0.39;45.83;98470.41;1789319;79;21571;-38
2021/12/25 13:08:36;;;;;;;4.25;2.87;;;;;;;0.32;45.82;98470.90;1746930;80;21619;-37